createdAt,value
2023-02-05T00:02:54.789Z,26
2023-02-05T00:08:33.396Z,26.8
2023-02-05T00:13:56.493Z,26.2
2023-02-05T00:19:33.516Z,26.1
2023-02-05T00:25:12.117Z,26.4
2023-02-05T00:30:50.914Z,27.2
2023-02-05T00:36:29.606Z,27.1
2023-02-05T00:42:07.906Z,26
2023-02-05T00:47:45.585Z,26.9
2023-02-05T00:53:24.128Z,27.3
2023-02-05T00:59:03.552Z,26.3
2023-02-05T01:04:41.216Z,26.4
2023-02-05T01:10:18.541Z,27.3
2023-02-05T01:15:57.281Z,27.1
2023-02-05T01:21:35.092Z,26.1
2023-02-05T01:27:13.312Z,26.9
2023-02-05T01:32:52.700Z,27.4
2023-02-05T01:38:30.394Z,26.4
2023-02-05T01:43:52.953Z,26.4
2023-02-05T01:55:22.753Z,27.2
2023-02-05T02:00:59.719Z,26.1
2023-02-05T02:06:38.363Z,26.6
2023-02-05T02:12:16.396Z,26.3
2023-02-05T02:17:53.854Z,26.1
2023-02-05T02:23:31.961Z,27.1
2023-02-05T02:28:55.197Z,27.1
2023-02-05T02:34:33.080Z,26.2
2023-02-05T02:40:11.474Z,26.9
2023-02-05T02:45:34.224Z,27.3
2023-02-05T02:51:12.550Z,26.4
2023-02-05T02:56:19.544Z,26.6
2023-02-05T03:01:44.632Z,27.3
2023-02-05T03:07:09.846Z,27.1
2023-02-05T03:12:32.673Z,26.2
2023-02-05T03:17:24.099Z,27
2023-02-05T03:22:46.838Z,27.2
2023-02-05T03:28:25.208Z,26.4
2023-02-05T03:33:47.292Z,26.6
2023-02-05T03:39:25.836Z,27.3
2023-02-05T03:45:04.392Z,27.1
2023-02-05T03:50:48.105Z,26.3
2023-02-05T03:56:09.697Z,26.7
2023-02-05T04:01:47.933Z,26.3
2023-02-05T04:07:09.998Z,26.1
2023-02-05T04:12:32.565Z,27.1
2023-02-05T04:17:56.739Z,27.2
2023-02-05T04:23:19.329Z,26.3
2023-02-05T04:28:57.496Z,26.7
2023-02-05T04:34:36.347Z,27.3
2023-02-05T04:40:14.223Z,26.9
2023-02-05T04:45:36.672Z,26.3
2023-02-05T04:51:14.847Z,27.1
2023-02-05T04:56:51.974Z,27.3
2023-02-05T05:02:14.189Z,26.3
2023-02-05T05:07:52.418Z,26.8
2023-02-05T05:13:14.476Z,27.4
2023-02-05T05:18:53.129Z,26.9
2023-02-05T05:24:31.592Z,26.4
2023-02-05T05:30:08.874Z,27.2
2023-02-05T05:35:47.135Z,27.3
2023-02-05T05:41:25.500Z,26.3
2023-02-05T05:47:03.254Z,26.9
2023-02-05T05:52:40.295Z,25.7
2023-02-05T05:58:19.154Z,25.7
2023-02-05T06:03:56.462Z,26.1
2023-02-05T06:09:34.839Z,26.9
2023-02-05T06:14:59.910Z,27.2
2023-02-05T06:20:38.205Z,26.3
2023-02-05T06:26:15.970Z,26.8
2023-02-05T06:31:55.324Z,27.4
2023-02-05T06:37:46.506Z,27.1
2023-02-05T06:43:25.244Z,26.4
2023-02-05T06:49:03.882Z,27.1
2023-02-05T06:54:26.197Z,27.4
2023-02-05T07:00:04.213Z,26.4
2023-02-05T07:05:42.837Z,26.8
2023-02-05T07:11:21.431Z,27.4
2023-02-05T07:16:43.808Z,27.1
2023-02-05T07:22:22.431Z,26.3
2023-02-05T07:27:44.689Z,26.9
2023-02-05T07:33:22.842Z,26.1
2023-02-05T07:39:01.660Z,25.6
2023-02-05T07:44:23.946Z,26.8
2023-02-05T07:49:47.439Z,27.3
2023-02-05T07:55:26.152Z,26.6
2023-02-05T08:01:17.862Z,26.6
2023-02-05T08:06:56.474Z,27.4
2023-02-05T08:12:35.989Z,27.3
2023-02-05T08:18:20.392Z,26.4
2023-02-05T08:23:58.047Z,27.1
2023-02-05T08:29:36.829Z,27.4
2023-02-05T08:34:58.947Z,26.4
2023-02-05T08:40:21.534Z,26.8
2023-02-05T08:45:59.870Z,27.4
2023-02-05T08:51:51.234Z,27.2
2023-02-05T08:57:29.816Z,26.4
2023-02-05T09:03:08.632Z,27.3
2023-02-05T09:21:39.620Z,26.4
2023-02-05T09:27:18.439Z,26.3
2023-02-05T09:32:57.158Z,26.1
2023-02-05T09:38:34.973Z,27.1
2023-02-05T09:45:18.291Z,27.3
2023-02-05T09:50:58.045Z,26.4
2023-02-05T09:56:37.005Z,27.2
2023-02-05T10:02:22.716Z,27.4
2023-02-05T10:08:00.261Z,26.4
2023-02-05T10:13:21.772Z,27
2023-02-05T10:19:00.921Z,27.4
2023-02-05T10:24:38.582Z,26.6
2023-02-05T10:30:16.906Z,26.8
2023-02-05T10:35:56.438Z,27.4
2023-02-05T10:41:18.341Z,27.3
2023-02-05T10:46:59.412Z,26.4
2023-02-05T10:52:38.334Z,27.3
2023-02-05T10:58:15.793Z,27.5
2023-02-05T11:03:53.941Z,26.5
2023-02-05T11:09:32.578Z,27
2023-02-05T11:14:56.517Z,26.6
2023-02-05T11:20:34.431Z,26.6
2023-02-05T11:26:13.291Z,27.4
2023-02-05T11:32:17.240Z,27.4
2023-02-05T11:37:38.919Z,26.5
2023-02-05T11:43:17.849Z,27.3
2023-02-05T11:48:56.415Z,27.5
2023-02-05T11:54:18.874Z,26.6
2023-02-05T12:00:08.685Z,27.1
2023-02-05T12:05:47.049Z,27.6
2023-02-05T12:11:24.224Z,26.6
2023-02-05T12:17:05.928Z,26.9
2023-02-05T12:22:43.064Z,27.6
2023-02-05T12:28:20.968Z,26.8
2023-02-05T12:33:45.102Z,26.7
2023-02-05T12:39:36.499Z,27.5
2023-02-05T12:44:58.743Z,27.4
2023-02-05T12:50:37.880Z,26.6
2023-02-05T12:56:15.077Z,27.3
2023-02-05T13:01:53.024Z,26.8
2023-02-05T13:07:32.372Z,26.8
2023-02-05T13:13:10.087Z,27.5
2023-02-05T13:18:48.999Z,26.8
2023-02-05T13:24:27.396Z,27
2023-02-05T13:30:11.697Z,27.6
2023-02-05T13:35:54.996Z,26.8
2023-02-05T13:41:36.923Z,26.9
2023-02-05T13:47:15.307Z,27.6
2023-02-05T13:52:54.720Z,26.9
2023-02-05T13:58:17.909Z,26.8
2023-02-05T14:03:56.771Z,27.5
2023-02-05T14:09:34.240Z,27.4
2023-02-05T14:15:24.712Z,26.6
2023-02-05T14:21:03.084Z,27.4
2023-02-05T14:26:28.306Z,27.4
2023-02-05T14:32:08.942Z,26.6
2023-02-05T14:37:42.045Z,27.3
2023-02-05T14:43:10.334Z,27
2023-02-05T14:48:49.508Z,26.6
2023-02-05T14:54:11.915Z,26.6
2023-02-05T14:59:50.004Z,27.4
2023-02-05T15:05:00.220Z,27.4
2023-02-05T15:10:38.296Z,26.6
2023-02-05T15:16:16.712Z,27.3
2023-02-05T15:21:45.273Z,27.4
2023-02-05T15:27:23.742Z,26.6
2023-02-05T15:32:46.628Z,27.1
2023-02-05T15:38:25.262Z,27.6
2023-02-05T15:44:03.025Z,26.7
2023-02-05T15:49:40.400Z,26.9
2023-02-05T15:55:18.769Z,27.5
2023-02-05T16:00:41.460Z,27.1
2023-02-05T16:06:19.778Z,26.6
2023-02-05T16:11:43.093Z,26.2
2023-02-05T16:17:06.249Z,25.8
2023-02-05T16:22:44.047Z,25.4
2023-02-05T16:28:07.264Z,24.8
2023-02-05T16:33:58.844Z,24.2
2023-02-05T16:39:36.105Z,23.8
2023-02-05T16:44:59.847Z,24.5
2023-02-05T16:50:38.192Z,26.2
2023-02-05T16:56:00.777Z,27.5
2023-02-05T17:01:39.634Z,28.1
2023-02-05T17:07:02.917Z,28.6
2023-02-05T17:12:25.719Z,29
2023-02-05T17:18:04.634Z,29.2
2023-02-05T17:23:26.997Z,29.1
2023-02-05T17:29:04.678Z,29.2
2023-02-05T17:34:43.989Z,29.5
2023-02-05T17:40:25.234Z,29.4
2023-02-05T17:46:06.048Z,30.1
2023-02-05T17:51:44.596Z,30.5
2023-02-05T17:56:52.020Z,30.8
2023-02-05T18:02:14.499Z,30.8
2023-02-05T18:07:53.256Z,30.9
2023-02-05T18:13:15.744Z,30.9
2023-02-05T18:18:38.821Z,31.1
2023-02-05T18:24:17.929Z,31.3
2023-02-05T18:29:42.705Z,31.3
2023-02-05T18:35:06.743Z,31
2023-02-05T18:40:46.843Z,31.1
2023-02-05T18:46:09.595Z,30.8
2023-02-05T18:51:50.200Z,30.8
2023-02-05T18:57:13.203Z,30.6
2023-02-05T19:02:36.192Z,30.9
2023-02-05T19:08:13.930Z,30.8
2023-02-05T19:13:53.801Z,31.3
2023-02-05T19:19:33.034Z,31.2
2023-02-05T19:25:11.595Z,31.1
2023-02-05T19:30:50.300Z,31.4
2023-02-05T19:36:28.933Z,31.2
2023-02-05T19:42:06.694Z,31.1
2023-02-05T19:47:45.349Z,31.1
2023-02-05T19:53:08.674Z,31.6
2023-02-05T19:58:32.204Z,31.8
2023-02-05T20:03:57.340Z,31.8
2023-02-05T20:09:35.469Z,31.4
2023-02-05T20:15:14.540Z,31.4
2023-02-05T20:21:07.084Z,31.1
2023-02-05T20:26:45.414Z,31.1
2023-02-05T20:32:24.244Z,30.8
2023-02-05T20:38:02.423Z,30.4
2023-02-05T20:43:41.022Z,30.2
2023-02-05T20:49:03.526Z,29.9
2023-02-05T20:54:56.004Z,29.4
2023-02-05T21:00:35.132Z,29.1
2023-02-05T21:06:14.601Z,28.6
2023-02-05T21:11:52.356Z,28.3
2023-02-05T21:17:30.675Z,27.9
2023-02-05T21:22:37.780Z,27.7
2023-02-05T21:28:01.954Z,27.2
2023-02-05T21:33:40.927Z,26.4
2023-02-05T21:39:18.411Z,26
2023-02-05T21:44:52.971Z,26.6
2023-02-05T21:50:31.334Z,27.2
2023-02-05T21:55:53.626Z,27.5
2023-02-05T22:01:16.589Z,26.8
2023-02-05T22:06:39.595Z,25.9
2023-02-05T22:11:48.362Z,26.3
2023-02-05T22:17:27.069Z,27.3
2023-02-05T22:23:05.366Z,27.3
2023-02-05T22:28:44.053Z,26.3
2023-02-05T22:34:07.437Z,26.1
2023-02-05T22:39:46.176Z,26.4
2023-02-05T22:45:24.187Z,27.4
2023-02-05T22:51:02.176Z,27.1
2023-02-05T22:56:25.226Z,26.3
2023-02-05T23:02:06.355Z,26.9
2023-02-05T23:07:28.784Z,27.3
2023-02-05T23:12:54.674Z,26.7
2023-02-05T23:18:32.056Z,26.4
2023-02-05T23:24:09.777Z,27.4
2023-02-05T23:29:48.373Z,27.3
2023-02-05T23:35:11.264Z,26.4
2023-02-05T23:40:49.558Z,27.1
2023-02-05T23:46:27.976Z,27.4
2023-02-05T23:52:04.991Z,26.5
2023-02-05T23:57:45.266Z,26.8
